createdAt,value
2023-03-20T00:01:57.860Z,15.05
2023-03-20T00:06:59.438Z,13.32
2023-03-20T00:12:01.417Z,16.05
2023-03-20T00:17:10.897Z,19.00
2023-03-20T00:22:12.593Z,20.30
2023-03-20T00:27:16.120Z,19.05
2023-03-20T00:32:18.215Z,18.65
2023-03-20T00:37:19.700Z,18.67
2023-03-20T00:42:22.359Z,23.05
2023-03-20T00:47:25.100Z,13.20
2023-03-20T00:52:26.635Z,12.63
2023-03-20T00:57:39.955Z,19.95
2023-03-20T01:02:41.546Z,19.42
2023-03-20T01:07:43.221Z,17.02
2023-03-20T01:12:46.565Z,14.57
2023-03-20T01:17:48.899Z,20.40
2023-03-20T01:22:50.826Z,17.02
2023-03-20T01:27:54.356Z,13.18
2023-03-20T01:32:56.876Z,16.55
2023-03-20T01:37:58.472Z,19.48
2023-03-20T01:43:02.994Z,16.95
2023-03-20T01:48:27.267Z,18.88
2023-03-20T01:53:29.987Z,15.35
2023-03-20T01:58:38.985Z,18.58
2023-03-20T02:03:43.687Z,15.80
2023-03-20T02:08:51.009Z,19.17
2023-03-20T02:13:56.945Z,15.82
2023-03-20T02:18:59.094Z,16.95
2023-03-20T02:24:29.241Z,18.83
2023-03-20T02:29:56.938Z,17.52
2023-03-20T02:35:35.996Z,17.02
2023-03-20T02:40:59.041Z,15.73
2023-03-20T02:46:25.511Z,17.33
2023-03-20T02:51:56.442Z,20.15
2023-03-20T02:57:05.890Z,17.42
2023-03-20T03:02:12.491Z,16.70
2023-03-20T03:07:15.965Z,17.40
2023-03-20T03:12:21.733Z,17.63
2023-03-20T03:17:27.754Z,18.60
2023-03-20T03:22:29.317Z,23.60
2023-03-20T03:28:02.871Z,20.98
2023-03-20T03:33:23.151Z,21.83
2023-03-20T03:38:49.352Z,24.80
2023-03-20T03:43:56.995Z,28.55
2023-03-20T03:48:59.145Z,31.80
2023-03-20T03:54:15.449Z,28.60
2023-03-20T03:59:26.367Z,25.52
2023-03-20T04:04:30.297Z,24.52
2023-03-20T04:09:32.268Z,28.48
2023-03-20T04:14:33.816Z,24.42
2023-03-20T04:19:35.291Z,25.80
2023-03-20T04:24:36.755Z,29.95
2023-03-20T04:29:39.359Z,29.95
2023-03-20T04:34:40.880Z,31.55
2023-03-20T04:39:42.980Z,26.25
2023-03-20T04:44:44.455Z,33.00
2023-03-20T04:49:45.938Z,30.70
2023-03-20T04:54:47.439Z,29.50
2023-03-20T04:59:48.984Z,29.52
2023-03-20T05:04:51.028Z,32.42
2023-03-20T05:09:52.563Z,32.33
2023-03-20T05:14:56.889Z,28.95
2023-03-20T05:19:58.367Z,29.13
2023-03-20T05:25:01.332Z,31.85
2023-03-20T05:30:03.011Z,30.65
2023-03-20T05:35:05.299Z,26.25
2023-03-20T05:40:11.201Z,29.80
2023-03-20T05:45:12.751Z,30.13
2023-03-20T05:50:14.287Z,26.45
2023-03-20T05:55:16.096Z,35.88
2023-03-20T06:00:17.952Z,27.45
2023-03-20T06:05:19.428Z,29.38
2023-03-20T06:10:21.115Z,29.92
2023-03-20T06:15:23.038Z,26.63
2023-03-20T06:20:24.847Z,24.55
2023-03-20T06:25:26.386Z,27.20
2023-03-20T06:30:27.971Z,27.35
2023-03-20T06:35:31.296Z,27.23
2023-03-20T06:40:32.909Z,29.08
2023-03-20T06:45:34.601Z,30.20
2023-03-20T06:50:36.589Z,31.75
2023-03-20T06:55:38.466Z,30.98
2023-03-20T07:00:40.191Z,30.63
2023-03-20T07:05:42.035Z,26.63
2023-03-20T07:10:43.587Z,26.50
2023-03-20T07:16:01.210Z,25.52
2023-03-20T07:21:06.579Z,22.50
2023-03-20T07:26:08.100Z,25.42
2023-03-20T07:31:22.070Z,25.65
2023-03-20T07:36:23.721Z,29.33
2023-03-20T07:41:26.583Z,22.67
2023-03-20T07:46:28.195Z,23.02
2023-03-20T07:51:30.223Z,24.52
2023-03-20T07:56:32.453Z,24.00
2023-03-20T08:01:33.994Z,23.63
2023-03-20T08:06:35.862Z,25.70
2023-03-20T08:11:37.945Z,25.92
2023-03-20T08:16:39.491Z,22.23
2023-03-20T08:21:41.049Z,24.13
2023-03-20T08:26:43.990Z,30.38
2023-03-20T08:31:45.860Z,31.63
2023-03-20T08:36:47.538Z,27.33
2023-03-20T08:41:49.694Z,24.65
2023-03-20T08:46:51.209Z,24.60
2023-03-20T08:51:52.757Z,25.45
2023-03-20T08:56:54.320Z,29.20
2023-03-20T09:01:55.889Z,26.33
2023-03-20T09:06:57.536Z,26.70
2023-03-20T09:12:00.482Z,23.77
2023-03-20T09:17:02.040Z,25.73
2023-03-20T09:22:03.660Z,26.15
2023-03-20T09:27:05.646Z,24.75
2023-03-20T09:32:07.981Z,22.70
2023-03-20T09:37:09.465Z,21.25
2023-03-20T09:42:32.809Z,18.95
2023-03-20T09:48:02.839Z,20.63
2023-03-20T09:53:13.077Z,17.58
2023-03-20T09:58:46.985Z,17.52
2023-03-20T10:03:55.720Z,18.20
2023-03-20T10:09:00.141Z,16.92
2023-03-20T10:14:22.465Z,18.27
2023-03-20T10:19:32.472Z,16.73
2023-03-20T10:24:53.067Z,17.70
2023-03-20T10:30:03.042Z,19.73
2023-03-20T10:35:49.905Z,16.38
2023-03-20T10:40:52.891Z,19.38
2023-03-20T10:46:05.261Z,23.70
2023-03-20T10:51:14.634Z,31.15
2023-03-20T10:56:30.917Z,20.30
2023-03-20T11:01:35.071Z,24.42
2023-03-20T11:06:47.251Z,24.20
2023-03-20T11:11:52.034Z,20.05
2023-03-20T11:16:56.926Z,22.17
2023-03-20T11:22:02.164Z,20.58
2023-03-20T11:27:10.731Z,20.60
2023-03-20T11:32:32.678Z,21.70
2023-03-20T11:37:35.392Z,16.77
2023-03-20T11:42:37.269Z,17.20
2023-03-20T11:47:39.906Z,20.00
2023-03-20T11:52:45.177Z,18.25
2023-03-20T11:57:47.654Z,22.05
2023-03-20T12:02:49.563Z,20.33
2023-03-20T12:07:53.010Z,22.05
2023-03-20T12:13:12.928Z,19.77
2023-03-20T12:18:35.989Z,18.42
2023-03-20T12:23:58.867Z,19.73
2023-03-20T12:29:22.119Z,15.60
2023-03-20T12:34:42.458Z,18.27
2023-03-20T12:39:55.470Z,18.38
2023-03-20T12:45:09.260Z,23.10
2023-03-20T12:50:28.850Z,18.13
2023-03-20T12:55:48.657Z,17.33
2023-03-20T13:00:50.105Z,16.30
2023-03-20T13:06:03.071Z,15.32
2023-03-20T13:11:25.920Z,20.05
2023-03-20T13:16:45.584Z,15.25
2023-03-20T13:22:01.748Z,18.08
2023-03-20T13:27:46.378Z,16.65
2023-03-20T13:33:25.948Z,13.13
2023-03-20T13:38:33.959Z,13.13
2023-03-20T13:43:35.665Z,13.95
2023-03-20T13:48:42.748Z,14.77
2023-03-20T13:54:29.928Z,12.30
2023-03-20T13:59:43.549Z,12.32
2023-03-20T14:04:47.583Z,12.55
2023-03-20T14:09:54.086Z,11.18
2023-03-20T14:14:57.639Z,6.45
2023-03-20T14:20:20.364Z,7.90
2023-03-20T14:25:23.737Z,5.32
2023-03-20T14:30:31.411Z,7.65
2023-03-20T14:40:57.791Z,6.00
2023-03-20T14:46:21.086Z,4.75
2023-03-20T14:51:44.698Z,7.18
2023-03-20T14:56:46.789Z,5.00
2023-03-20T15:02:01.986Z,7.18
2023-03-20T15:07:36.607Z,5.38
2023-03-20T15:12:38.695Z,5.43
2023-03-20T15:17:48.947Z,4.85
2023-03-20T15:22:53.875Z,7.82
2023-03-20T15:27:56.268Z,11.25
2023-03-20T15:32:58.914Z,8.48
2023-03-20T15:38:08.288Z,12.40
2023-03-20T15:43:24.964Z,7.38
2023-03-20T15:48:26.553Z,10.25
2023-03-20T15:53:37.626Z,9.95
2023-03-20T15:58:41.154Z,11.43
2023-03-20T16:03:42.958Z,11.85
2023-03-20T16:08:46.784Z,10.63
2023-03-20T16:13:49.759Z,13.02
2023-03-20T16:18:51.754Z,16.13
2023-03-20T16:23:56.389Z,18.92
2023-03-20T16:29:04.478Z,23.73
2023-03-20T16:34:08.728Z,28.55
2023-03-20T16:39:15.919Z,30.27
2023-03-20T16:44:20.790Z,22.67
2023-03-20T16:49:44.911Z,28.67
2023-03-20T16:54:46.540Z,20.42
2023-03-20T16:59:48.857Z,20.25
2023-03-20T17:04:56.246Z,18.60
2023-03-20T17:10:01.114Z,19.98
2023-03-20T17:15:02.655Z,23.17
2023-03-20T17:20:04.362Z,31.25
2023-03-20T17:25:06.644Z,31.75
2023-03-20T17:30:17.567Z,37.35
2023-03-20T17:35:19.430Z,41.33
2023-03-20T17:40:23.034Z,41.08
2023-03-20T17:45:24.817Z,50.72
2023-03-20T17:50:27.424Z,41.42
2023-03-20T17:55:29.008Z,44.55
2023-03-20T18:00:30.989Z,49.22
2023-03-20T18:05:34.174Z,47.33
2023-03-20T18:10:37.638Z,41.45
2023-03-20T18:15:40.389Z,48.17
2023-03-20T18:20:43.032Z,52.08
2023-03-20T18:25:44.658Z,45.45
2023-03-20T18:30:46.875Z,42.92
2023-03-20T18:35:48.504Z,48.65
2023-03-20T18:40:50.055Z,37.28
2023-03-20T18:45:51.648Z,55.85
2023-03-20T18:50:54.022Z,43.55
2023-03-20T18:55:56.103Z,47.03
2023-03-20T19:00:59.638Z,48.40
2023-03-20T19:06:01.176Z,43.72
2023-03-20T19:11:02.871Z,64.32
2023-03-20T19:16:06.034Z,70.15
2023-03-20T19:21:10.245Z,58.00
2023-03-20T19:26:18.426Z,80.80
2023-03-20T19:31:21.385Z,73.05
2023-03-20T19:36:31.582Z,64.30
2023-03-20T19:41:33.176Z,54.40
2023-03-20T19:46:42.455Z,50.70
2023-03-20T19:51:44.890Z,66.20
2023-03-20T19:56:46.430Z,60.40
2023-03-20T20:01:48.057Z,65.00
2023-03-20T20:06:49.694Z,65.53
2023-03-20T20:11:51.337Z,72.40
2023-03-20T20:16:53.749Z,62.60
2023-03-20T20:22:20.260Z,59.53
2023-03-20T20:27:19.031Z,60.10
2023-03-20T20:32:23.465Z,63.67
2023-03-20T20:42:49.236Z,61.92
2023-03-20T20:47:51.069Z,69.78
2023-03-20T20:52:53.706Z,76.03
2023-03-20T20:57:55.878Z,69.55
2023-03-20T21:02:57.557Z,70.57
2023-03-20T21:07:59.140Z,77.47
2023-03-20T21:13:00.986Z,68.45
2023-03-20T21:18:02.593Z,86.18
2023-03-20T21:23:04.201Z,68.25
2023-03-20T21:28:06.540Z,61.92
2023-03-20T21:33:08.172Z,58.60
2023-03-20T21:43:31.508Z,46.45
2023-03-20T21:59:50.960Z,30.00
2023-03-20T22:10:46.031Z,33.45
2023-03-20T22:16:03.295Z,35.08
2023-03-20T22:21:29.543Z,33.22
2023-03-20T22:27:07.258Z,35.60
2023-03-20T22:42:47.884Z,28.17
2023-03-20T22:47:34.872Z,27.95
2023-03-20T22:52:48.489Z,25.55
2023-03-20T22:58:05.935Z,25.33
2023-03-20T23:08:33.501Z,23.58
2023-03-20T23:13:35.581Z,20.08
2023-03-20T23:18:37.712Z,20.80
2023-03-20T23:23:39.276Z,16.85
2023-03-20T23:28:42.189Z,16.35
2023-03-20T23:33:55.552Z,20.20
2023-03-20T23:38:57.067Z,20.90
2023-03-20T23:43:58.546Z,23.75
2023-03-20T23:49:00.184Z,18.67
2023-03-20T23:54:01.667Z,20.00
2023-03-20T23:59:15.010Z,18.90
